Latest Weather Observations for Carnarvon

IDW60801

Issued at 2:32 pm WST Tuesday 21 April 2015 (issued every 30 minutes, with the page automatically refreshed every 10 minutes)

About weather observations | Map of weather stations | Latest weather observations for WA | Other Formats
Station Details ID: 006011 Name: CARNARVON AIRPORT Lat: -24.89 Lon: 113.67 Height: 4.0 m
Data from the previous 72 hours. | See also: Recent months at Carnarvon
Date/Time
WST
Temp
°C
App
Temp
°C
Dew
Point
Rel
Hum
%
Delta-T
°C
Wind Press
QNH
hPa
Press
MSL
hPa
Rain
since 9 am
mm
Dir
 
Spd
km/h
Gust
km/h
Spd
kts
Gust
kts
21/02:30pm 29.1 24.7 11.6 33 10.1 E 26 32 14 17 1012.6 - 0.0
21/02:00pm 29.5 26.3 12.0 34 10.2 ESE 20 28 11 15 1012.9 - 0.0
21/01:30pm 28.6 25.5 12.1 36 9.6 E 20 28 11 15 1013.1 - 0.0
21/01:00pm 28.2 24.8 12.4 37 9.2 E 22 32 12 17 1013.7 - 0.0
21/12:30pm 28.3 26.8 13.2 39 8.9 ENE 13 20 7 11 1014.2 - 0.0
21/12:00pm 27.4 24.6 12.6 40 8.6 ESE 19 24 10 13 1014.7 1014.7 0.0
21/11:30am 26.9 23.9 12.4 40 8.4 ENE 20 32 11 17 1015.2 - 0.0
21/11:00am 26.8 24.1 11.8 39 8.6 E 17 26 9 14 1015.5 - 0.0
21/10:30am 26.4 22.8 11.7 40 8.4 E 22 35 12 19 1015.8 - 0.0
21/10:00am 26.2 22.6 11.9 41 8.2 E 22 33 12 18 1016.1 - 0.0
21/09:30am 25.9 21.6 11.9 41 8.0 E 26 33 14 18 1016.2 - 0.0
21/09:00am 25.1 21.0 11.5 42 7.7 ENE 24 33 13 18 1016.1 1016.1 0.0
21/08:30am 24.2 20.0 11.2 44 7.3 E 24 32 13 17 1016.0 - 0.0
21/08:00am 23.2 20.0 11.4 47 6.6 E 19 24 10 13 1016.0 - 0.0
21/07:30am 21.7 19.4 11.9 53 5.5 E 15 19 8 10 1016.0 - 0.0
21/07:00am 18.9 17.5 12.2 65 3.7 E 11 15 6 8 1015.9 - 0.0
21/06:30am 19.2 17.4 12.2 64 3.9 E 13 15 7 8 1015.8 - 0.0
21/06:00am 19.4 17.9 12.0 62 4.1 ESE 11 15 6 8 1015.6 1015.6 0.0
21/05:30am 18.5 16.2 11.8 65 3.7 E 15 17 8 9 1015.6 - 0.0
21/05:00am 18.1 16.2 11.7 66 3.5 SE 13 13 7 7 1015.6 - 0.0
21/04:30am 18.9 17.3 11.4 61 4.1 ESE 11 17 6 9 1015.4 - 0.0
21/04:00am 18.8 17.2 11.7 63 3.9 E 11 13 6 7 1015.2 - 0.0
21/03:30am 19.3 17.7 11.5 60 4.3 ESE 11 11 6 6 1015.1 - 0.0
21/03:00am 19.5 17.9 11.5 60 4.4 E 11 13 6 7 1015.0 1015.0 0.0
21/02:30am 20.4 18.7 11.3 56 5.0 E 11 13 6 7 1015.1 - 0.0
21/02:00am 21.5 19.4 11.2 52 5.7 E 13 17 7 9 1015.2 - 0.0
21/01:30am 22.1 20.0 11.1 49 6.1 E 13 17 7 9 1015.1 - 0.0
21/01:00am 22.6 20.5 11.1 48 6.4 ESE 13 15 7 8 1015.2 - 0.0
21/12:30am 24.1 21.9 10.8 43 7.4 ESE 13 17 7 9 1015.2 - 0.0
21/12:00am 24.3 22.1 10.8 42 7.5 ESE 13 15 7 8 1015.2 1015.2 0.0
 
Date/Time
WST
Temp
°C
App
Temp
°C
Dew
Point
Rel
Hum
%
Delta-T
°C
Wind Press
QNH
hPa
Press
MSL
hPa
Rain
since 9 am
mm
Dir
 
Spd
km/h
Gust
km/h
Spd
kts
Gust
kts
20/11:30pm 24.6 21.8 10.1 40 8.0 ESE 15 19 8 10 1015.3 - 0.0
20/11:00pm 24.9 21.8 10.3 39 8.1 SE 17 20 9 11 1015.5 - 0.0
20/10:30pm 24.8 22.4 10.1 39 8.1 SE 13 15 7 8 1015.6 - 0.0
20/10:00pm 24.1 21.3 10.1 41 7.7 SE 15 17 8 9 1015.6 - 0.0
20/09:30pm 24.1 21.4 10.3 41 7.6 SE 15 17 8 9 1015.8 - 0.0
20/09:00pm 24.8 22.4 10.1 39 8.1 SE 13 15 7 8 1015.8 1015.8 0.0
20/08:30pm 25.2 22.8 10.2 38 8.3 SE 13 15 7 8 1015.7 - 0.0
20/08:00pm 25.5 23.6 10.6 39 8.3 ESE 11 13 6 7 1015.6 - 0.0
20/07:30pm 26.6 24.0 9.5 34 9.4 ESE 13 15 7 8 1015.3 - 0.0
20/07:00pm 27.8 25.2 9.3 31 10.2 ESE 13 20 7 11 1015.0 - 0.0
20/06:30pm 28.1 25.0 9.0 30 10.5 ESE 15 19 8 10 1014.7 - 0.0
20/06:00pm 28.3 24.8 8.8 29 10.7 ESE 17 24 9 13 1014.4 1014.4 0.0
20/05:30pm 28.5 25.2 9.4 30 10.6 ESE 17 26 9 14 1014.2 - 0.0
20/05:00pm 29.6 26.1 8.8 27 11.5 ESE 17 22 9 12 1013.9 - 0.0
20/04:30pm 30.0 26.9 8.7 26 11.8 ESE 15 22 8 12 1013.9 - 0.0
20/04:00pm 30.1 27.0 8.8 26 11.8 ESE 15 22 8 12 1013.9 - 0.0
20/03:30pm 30.2 26.3 9.3 27 11.7 E 20 30 11 16 1014.1 - 0.0
20/03:00pm 30.3 26.5 9.7 27 11.6 E 20 24 11 13 1014.3 1014.3 0.0
20/02:30pm 30.2 26.4 9.8 28 11.5 E 20 32 11 17 1014.4 - 0.0
20/02:00pm 30.4 26.7 10.1 28 11.5 ESE 20 28 11 15 1014.6 - 0.0
20/01:30pm 30.3 27.2 10.2 28 11.4 E 17 30 9 16 1014.9 - 0.0
20/01:00pm 29.5 25.8 10.2 30 10.9 E 20 30 11 16 1015.4 - 0.0
20/12:30pm 30.0 25.5 10.2 29 11.2 E 24 28 13 15 1015.9 - 0.0
20/12:00pm 29.4 25.4 10.3 30 10.8 E 22 33 12 18 1016.4 1016.4 0.0
20/11:30am 28.4 23.5 10.0 31 10.3 ENE 26 35 14 19 1016.8 - 0.0
20/11:00am 28.2 23.0 10.2 32 10.1 ENE 28 41 15 22 1017.1 - 0.0
20/10:30am 27.4 21.8 10.0 33 9.7 ENE 30 41 16 22 1017.4 - 0.0
20/10:00am 26.6 21.0 10.3 36 9.1 E 30 37 16 20 1017.5 - 0.0
20/09:30am 25.8 21.2 11.0 39 8.3 E 26 35 14 19 1017.7 - 0.0
20/09:00am 24.5 19.6 11.3 43 7.4 E 28 35 15 19 1017.8 1017.8 0.0
20/08:30am 23.3 18.9 11.7 48 6.5 E 26 32 14 17 1017.8 - 0.0
20/08:00am 22.0 18.2 12.5 54 5.4 E 24 32 13 17 1017.8 - 0.0
20/07:30am 20.1 18.9 14.0 68 3.5 ESE 13 20 7 11 1017.8 - 0.0
20/07:00am 18.1 17.3 14.1 77 2.3 ESE 11 13 6 7 1017.8 - 0.0
20/06:30am 18.3 17.1 13.9 75 2.5 ESE 13 15 7 8 1017.6 - 0.0
20/06:00am 18.0 16.7 13.8 76 2.4 SE 13 13 7 7 1017.4 1017.4 0.0
20/05:30am 18.8 18.0 13.9 73 2.8 SE 11 13 6 7 1017.4 - 0.0
20/05:00am 19.5 18.7 13.9 70 3.2 ESE 11 13 6 7 1017.3 - 0.0
20/04:30am 20.4 19.7 14.2 67 3.6 E 11 13 6 7 1017.2 - 0.0
20/04:00am 21.6 20.5 14.2 62 4.3 E 13 17 7 9 1017.1 - 0.0
20/03:30am 22.2 20.7 14.3 61 4.6 E 15 19 8 10 1017.1 - 0.0
20/03:00am 22.7 20.8 14.3 59 4.9 E 17 26 9 14 1017.2 1017.2 0.0
20/02:30am 23.0 20.8 14.9 60 4.8 E 20 28 11 15 1017.4 - 0.0
20/02:00am 23.3 21.2 15.1 60 4.9 E 20 30 11 16 1017.6 - 0.0
20/01:30am 23.3 20.7 14.9 59 5.0 E 22 28 12 15 1017.7 - 0.0
20/01:00am 23.2 20.7 14.2 57 5.3 E 20 28 11 15 1017.8 - 0.0
20/12:30am 23.1 21.3 14.4 58 5.1 E 17 22 9 12 1018.0 - 0.0
20/12:00am 23.6 21.4 14.8 57 5.2 ENE 20 28 11 15 1018.1 1018.1 0.0
 
Date/Time
WST
Temp
°C
App
Temp
°C
Dew
Point
Rel
Hum
%
Delta-T
°C
Wind Press
QNH
hPa
Press
MSL
hPa
Rain
since 9 am
mm
Dir
 
Spd
km/h
Gust
km/h
Spd
kts
Gust
kts
19/11:30pm 23.5 21.8 15.7 61 4.7 ENE 19 24 10 13 1018.4 - 0.0
19/11:00pm 23.6 22.5 15.4 60 4.9 ENE 15 19 8 10 1018.6 - 0.0
19/10:30pm 23.9 22.7 15.0 57 5.3 E 15 20 8 11 1018.6 - 0.0
19/10:00pm 24.3 22.4 14.3 53 5.9 ENE 17 22 9 12 1018.6 - 0.0
19/09:30pm 24.7 22.4 14.2 52 6.2 ENE 19 24 10 13 1018.5 - 0.0
19/09:00pm 25.2 22.8 13.8 49 6.7 NE 19 28 10 15 1018.4 1018.4 0.0
19/08:30pm 25.7 23.5 13.2 46 7.3 NE 17 22 9 12 1018.1 - 0.0
19/08:00pm 26.2 23.9 13.0 44 7.7 NE 17 24 9 13 1017.9 - 0.0
19/07:30pm 26.7 23.6 12.1 40 8.4 ENE 20 28 11 15 1017.7 - 0.0
19/07:00pm 26.7 24.8 11.9 39 8.5 ENE 13 19 7 10 1017.3 - 0.0
19/06:30pm 27.1 24.3 11.5 37 8.9 ENE 17 24 9 13 1016.8 - 0.0
19/06:00pm 26.5 26.4 13.2 43 7.8 N 6 9 3 5 1016.4 1016.4 0.0
19/05:30pm 26.4 23.7 13.5 45 7.6 NNE 20 28 11 15 1016.3 - 0.0
19/05:00pm 27.8 24.4 11.3 35 9.4 ESE 20 32 11 17 1015.9 - 0.0
19/04:30pm 28.4 25.6 11.3 34 9.8 NE 17 20 9 11 1015.6 - 0.0
19/04:00pm 28.6 25.2 11.3 34 9.9 ENE 20 26 11 14 1015.5 - 0.0
19/03:30pm 29.2 25.4 11.0 32 10.4 ENE 22 28 12 15 1015.3 - 0.0
19/03:00pm 29.6 27.1 12.3 34 10.1 ENE 17 22 9 12 1015.2 1015.2 0.0
19/02:30pm 29.6 27.2 12.8 35 9.9 NE 17 24 9 13 1015.2 - 0.0
19/02:00pm 29.7 27.4 13.0 35 9.9 ENE 17 24 9 13 1015.3 - 0.0
19/01:30pm 30.2 28.1 13.5 36 10.0 NE 17 26 9 14 1015.5 - 0.0
19/01:00pm 30.0 27.3 13.4 36 9.9 ENE 20 30 11 16 1016.0 - 0.0
19/12:30pm 29.6 26.0 13.0 36 9.8 E 24 33 13 18 1016.4 - 0.0
19/12:00pm 28.5 24.8 12.6 37 9.3 E 24 32 13 17 1016.6 1016.6 0.0
19/11:30am 28.1 23.5 12.2 37 9.2 ENE 28 37 15 20 1017.0 - 0.0
19/11:00am 27.7 23.7 11.9 37 9.1 NE 24 28 13 15 1017.3 - 0.0
19/10:30am 26.6 22.4 12.4 41 8.2 E 26 33 14 18 1017.6 - 0.0
19/10:00am 26.9 23.7 13.0 42 8.1 E 22 32 12 17 1017.8 - 0.0
19/09:30am 25.9 23.2 14.5 49 6.8 E 22 32 12 17 1017.8 - 0.0
19/09:00am 24.2 21.6 15.0 56 5.5 E 22 28 12 15 1017.8 1017.8 0.0
19/08:30am 22.9 21.3 16.1 65 4.1 ESE 19 26 10 14 1017.7 - 0.0
19/08:00am 21.9 21.0 16.8 73 3.1 ESE 17 22 9 12 1017.5 - 0.0
19/07:30am 20.4 20.4 17.3 82 1.9 ESE 13 15 7 8 1017.3 - 0.0
19/07:00am 19.1 19.4 17.1 88 1.2 ESE 11 11 6 6 1016.8 - 0.0
19/06:30am 18.9 19.2 16.9 88 1.2 ESE 11 13 6 7 1016.3 - 0.0
19/06:00am 19.5 19.4 17.0 85 1.5 E 13 17 7 9 1016.1 1016.1 0.0
19/05:30am 19.5 20.0 17.4 88 1.3 ESE 11 13 6 7 1016.0 - 0.0
19/05:00am 19.7 19.9 17.6 88 1.3 E 13 13 7 7 1016.0 - 0.0
19/04:30am 19.9 20.6 18.0 89 1.2 ESE 11 13 6 7 1015.7 - 0.0
19/04:00am 19.8 20.5 18.0 89 1.1 E 11 13 6 7 1015.8 - 0.0
19/03:30am 20.6 22.0 18.7 89 1.2 E 9 11 5 6 1016.1 - 0.0
19/03:00am 21.2 22.6 19.5 90 1.1 E 11 13 6 7 1016.2 1016.2 0.0
19/02:30am 20.7 22.9 19.6 93 0.7 ENE 7 9 4 5 1016.2 - 0.0
19/02:00am 21.4 24.0 20.0 92 0.9 N 6 6 3 3 1016.4 - 0.0
19/01:30am 22.0 25.0 20.9 93 0.7 N 6 7 3 4 1016.4 - 0.0
19/01:00am 22.3 24.5 21.2 93 0.7 NNE 11 13 6 7 1016.6 - 0.0
19/12:30am 22.0 24.3 20.6 92 0.9 ESE 9 11 5 6 1016.7 - 0.0
19/12:00am 22.6 25.0 20.9 90 1.1 SE 9 9 5 5 1016.8 1016.8 0.0
 
Date/Time
WST
Temp
°C
App
Temp
°C
Dew
Point
Rel
Hum
%
Delta-T
°C
Wind Press
QNH
hPa
Press
MSL
hPa
Rain
since 9 am
mm
Dir
 
Spd
km/h
Gust
km/h
Spd
kts
Gust
kts
18/11:30pm 22.6 25.6 20.8 89 1.2 SE 6 7 3 4 1016.9 - 0.0
18/11:00pm 22.8 26.1 20.8 88 1.3 SE 4 7 2 4 1017.0 - 0.0
18/10:30pm 22.6 25.6 20.8 89 1.2 SE 6 7 3 4 1016.8 - 0.0
18/10:00pm 23.1 26.2 21.0 88 1.4 SSE 6 9 3 5 1016.8 - 0.0
18/09:30pm 23.5 25.7 21.1 86 1.6 SSE 11 13 6 7 1016.7 - 0.0
18/09:00pm 23.9 26.9 21.3 85 1.7 S 7 11 4 6 1016.8 1016.8 0.0
18/08:30pm 23.8 27.1 21.4 86 1.6 ESE 6 7 3 4 1016.7 - 0.0
18/08:00pm 24.3 27.0 21.4 84 1.9 SE 9 13 5 7 1016.8 - 0.0
18/07:30pm 24.5 26.9 21.6 84 1.9 S 11 13 6 7 1016.2 - 0.0
18/07:00pm 24.6 26.9 21.3 82 2.2 S 11 13 6 7 1015.7 - 0.0
18/06:30pm 24.9 27.2 21.4 81 2.3 S 11 17 6 9 1015.5 - 0.0
18/06:00pm 25.4 27.4 20.7 75 3.1 WSW 11 13 6 7 1015.2 1015.2 0.0
18/05:30pm 25.8 27.4 20.8 74 3.3 WSW 13 15 7 8 1015.1 - 0.0
18/05:00pm 26.3 27.6 20.2 69 4.0 W 13 17 7 9 1014.5 - 0.0
18/04:30pm 26.6 27.9 20.2 68 4.2 WNW 13 17 7 9 1014.5 - 0.0
18/04:00pm 28.2 28.7 17.4 52 6.8 ENE 11 19 6 10 1014.6 - 0.0
18/03:30pm 28.4 29.3 17.5 51 6.9 NE 9 17 5 9 1014.4 - 0.0
18/03:00pm 28.2 29.1 17.6 52 6.7 NE 9 19 5 10 1014.5 1014.5 0.0

Other Formats:

Comma delimited format used in spreadsheet applications
http://www.bom.gov.au/fwo/IDW60801/IDW60801.94300.axf

JavaScript Object Notation format (JSON) in row-major order
http://www.bom.gov.au/fwo/IDW60801/IDW60801.94300.json